createdAt,value
2017-11-27T00:00:57.250Z,97565.86
2017-11-27T00:03:23.509Z,97565.67
2017-11-27T00:05:49.678Z,97556.14
2017-11-27T00:08:15.863Z,97553.27
2017-11-27T00:10:41.970Z,97548.86
2017-11-27T00:13:08.164Z,97557.30
2017-11-27T00:15:34.539Z,97558.66
2017-11-27T00:18:00.714Z,97560.18
2017-11-27T00:20:26.845Z,97560.70
2017-11-27T00:22:52.981Z,97572.17
2017-11-27T00:25:19.105Z,97568.05
2017-11-27T00:27:45.238Z,97565.19
2017-11-27T00:30:11.593Z,97556.16
2017-11-27T00:32:37.845Z,97551.98
2017-11-27T00:35:04.414Z,97554.23
2017-11-27T00:37:30.657Z,97558.02
2017-11-27T00:39:56.867Z,97545.88
2017-11-27T00:42:23.092Z,97554.77
2017-11-27T00:44:49.249Z,97542.76
2017-11-27T00:47:15.405Z,97552.44
2017-11-27T00:49:41.564Z,97551.21
2017-11-27T00:52:07.664Z,97550.22
2017-11-27T00:54:33.895Z,97545.25
2017-11-27T00:57:00.115Z,97551.77
2017-11-27T00:59:26.360Z,97557.23
2017-11-27T01:01:52.558Z,97563.36
2017-11-27T01:04:18.759Z,97560.75
2017-11-27T01:06:44.973Z,97561.66
2017-11-27T01:09:11.058Z,97558.93
2017-11-27T01:11:37.258Z,97567.42
2017-11-27T01:14:03.439Z,97565.84
2017-11-27T01:16:29.630Z,97566.76
2017-11-27T01:18:55.713Z,97575.73
2017-11-27T01:21:21.837Z,97582.53
2017-11-27T01:23:48.186Z,97580.80
2017-11-27T01:26:14.350Z,97578.44
2017-11-27T01:28:40.493Z,97578.50
2017-11-27T01:31:06.716Z,97578.50
2017-11-27T01:33:32.901Z,97578.67
2017-11-27T01:35:59.100Z,97579.95
2017-11-27T01:38:25.266Z,97582.98
2017-11-27T01:40:51.419Z,97583.30
2017-11-27T01:43:17.562Z,97586.45
2017-11-27T01:45:43.743Z,97585.53
2017-11-27T01:48:09.844Z,97584.78
2017-11-27T01:50:36.417Z,97583.59
2017-11-27T01:53:02.568Z,97580.44
2017-11-27T01:55:28.699Z,97578.44
2017-11-27T01:57:54.900Z,97585.51
2017-11-27T02:00:21.111Z,97581.08
2017-11-27T02:02:47.291Z,97585.75
2017-11-27T02:05:13.771Z,97584.05
2017-11-27T02:07:39.991Z,97587.45
2017-11-27T02:10:06.274Z,97588.39
2017-11-27T02:12:32.469Z,97596.09
2017-11-27T02:14:58.582Z,97597.28
2017-11-27T02:17:24.947Z,97601.31
2017-11-27T02:19:51.057Z,97597.16
2017-11-27T02:22:17.267Z,97592.48
2017-11-27T02:24:43.481Z,97593.66
2017-11-27T02:27:09.685Z,97592.73
2017-11-27T02:29:35.817Z,97592.36
2017-11-27T02:32:01.897Z,97587.93
2017-11-27T02:34:28.010Z,97585.30
2017-11-27T02:36:54.139Z,97576.43
2017-11-27T02:39:20.271Z,97584.50
2017-11-27T02:41:46.489Z,97585.72
2017-11-27T02:44:12.696Z,97585.98
2017-11-27T02:46:38.815Z,97587.59
2017-11-27T02:49:04.990Z,97589.81
2017-11-27T02:51:31.116Z,97588.98
2017-11-27T02:53:57.256Z,97592.75
2017-11-27T02:56:33.357Z,97594.58
2017-11-27T02:58:59.446Z,97596.39
2017-11-27T03:01:25.586Z,97596.15
2017-11-27T03:03:51.826Z,97599.42
2017-11-27T03:06:17.969Z,97591.38
2017-11-27T03:08:44.253Z,97595.56
2017-11-27T03:11:10.486Z,97593.48
2017-11-27T03:13:36.675Z,97591.14
2017-11-27T03:16:02.889Z,97587.50
2017-11-27T03:18:28.983Z,97594.66
2017-11-27T03:20:55.044Z,97591.53
2017-11-27T03:23:21.246Z,97593.77
2017-11-27T03:25:47.437Z,97596.11
2017-11-27T03:28:13.617Z,97597.94
2017-11-27T03:30:39.754Z,97594.66
2017-11-27T03:33:05.946Z,97594.96
2017-11-27T03:35:32.165Z,97596.84
2017-11-27T03:37:58.342Z,97594.59
2017-11-27T03:40:24.450Z,97591.34
2017-11-27T03:42:50.605Z,97592.63
2017-11-27T03:45:16.730Z,97592.89
2017-11-27T03:47:42.869Z,97593.70
2017-11-27T03:50:09.018Z,97589.73
2017-11-27T03:52:35.366Z,97588.42
2017-11-27T03:55:01.509Z,97592.45
2017-11-27T03:57:27.670Z,97590.66
2017-11-27T03:59:53.806Z,97591.45
2017-11-27T04:02:19.938Z,97594.18
2017-11-27T04:04:46.413Z,97586.08
2017-11-27T04:07:12.513Z,97585.30
2017-11-27T04:09:38.632Z,97583.59
2017-11-27T04:12:04.787Z,97586.59
2017-11-27T04:14:30.864Z,97588.72
2017-11-27T04:16:57.010Z,97585.84
2017-11-27T04:19:23.146Z,97578.65
2017-11-27T04:21:50.557Z,97581.02
2017-11-27T04:24:16.680Z,97578.11
2017-11-27T04:26:42.778Z,97579.28
2017-11-27T04:29:08.916Z,97576.11
2017-11-27T04:31:35.029Z,97577.49
2017-11-27T04:34:01.214Z,97575.15
2017-11-27T04:36:27.249Z,97574.73
2017-11-27T04:38:53.427Z,97570.88
2017-11-27T04:41:19.549Z,97576.11
2017-11-27T04:43:45.692Z,97575.38
2017-11-27T04:46:11.820Z,97575.98
2017-11-27T04:48:37.909Z,97569.39
2017-11-27T04:51:04.009Z,97576.95
2017-11-27T04:53:30.122Z,97572.13
2017-11-27T04:55:56.222Z,97567.84
2017-11-27T04:58:22.317Z,97562.64
2017-11-27T05:00:48.785Z,97564.98
2017-11-27T05:03:14.915Z,97566.83
2017-11-27T05:05:41.050Z,97563.84
2017-11-27T05:08:07.196Z,97565.52
2017-11-27T05:10:33.303Z,97565.25
2017-11-27T05:12:59.541Z,97563.13
2017-11-27T05:15:25.754Z,97568.33
2017-11-27T05:17:51.926Z,97567.81
2017-11-27T05:20:18.030Z,97564.36
2017-11-27T05:22:44.177Z,97559.23
2017-11-27T05:25:10.270Z,97558.99
2017-11-27T05:27:36.327Z,97559.11
2017-11-27T05:30:02.468Z,97556.33
2017-11-27T05:32:28.579Z,97555.94
2017-11-27T05:34:54.694Z,97558.84
2017-11-27T05:37:20.854Z,97550.08
2017-11-27T05:39:46.994Z,97552.32
2017-11-27T05:42:13.093Z,97552.32
2017-11-27T05:44:39.273Z,97558.20
2017-11-27T05:47:05.393Z,97551.02
2017-11-27T05:49:31.516Z,97547.39
2017-11-27T05:51:57.686Z,97542.03
2017-11-27T05:54:24.175Z,97543.44
2017-11-27T05:56:50.320Z,97539.79
2017-11-27T05:59:16.457Z,97535.14
2017-11-27T06:01:42.528Z,97541.45
2017-11-27T06:04:08.592Z,97538.05
2017-11-27T06:06:34.733Z,97535.19
2017-11-27T06:09:00.801Z,97548.23
2017-11-27T06:11:26.952Z,97543.48
2017-11-27T06:13:53.041Z,97545.88
2017-11-27T06:16:19.198Z,97546.69
2017-11-27T06:18:45.297Z,97556.61
2017-11-27T06:21:11.449Z,97551.88
2017-11-27T06:23:37.620Z,97551.52
2017-11-27T06:26:03.747Z,97558.44
2017-11-27T06:28:29.907Z,97557.40
2017-11-27T06:30:56.370Z,97554.52
2017-11-27T06:33:22.686Z,97552.97
2017-11-27T06:35:48.885Z,97550.21
2017-11-27T06:38:15.114Z,97553.53
2017-11-27T06:40:41.181Z,97556.53
2017-11-27T06:43:07.285Z,97557.89
2017-11-27T06:45:33.417Z,97558.80
2017-11-27T06:47:59.502Z,97559.59
2017-11-27T06:50:25.689Z,97561.41
2017-11-27T06:52:51.795Z,97566.06
2017-11-27T06:55:17.919Z,97568.84
2017-11-27T06:57:44.085Z,97564.17
2017-11-27T07:00:10.198Z,97568.20
2017-11-27T07:02:36.424Z,97576.33
2017-11-27T07:05:02.974Z,97567.45
2017-11-27T07:07:29.182Z,97578.13
2017-11-27T07:09:55.302Z,97579.36
2017-11-27T07:12:21.453Z,97573.99
2017-11-27T07:14:47.610Z,97582.77
2017-11-27T07:17:13.742Z,97575.72
2017-11-27T07:19:39.866Z,97570.74
2017-11-27T07:22:05.957Z,97574.56
2017-11-27T07:24:32.098Z,97584.27
2017-11-27T07:26:58.800Z,97580.69
2017-11-27T07:29:24.847Z,97570.50
2017-11-27T07:31:50.966Z,97577.66
2017-11-27T07:34:17.102Z,97584.73
2017-11-27T07:36:43.244Z,97583.05
2017-11-27T07:39:15.921Z,97587.83
2017-11-27T07:41:41.970Z,97585.34
2017-11-27T07:44:08.102Z,97585.49
2017-11-27T07:46:34.234Z,97582.05
2017-11-27T07:49:00.643Z,97585.59
2017-11-27T07:51:26.746Z,97583.10
2017-11-27T07:53:52.847Z,97582.77
2017-11-27T07:56:18.971Z,97582.17
2017-11-27T07:58:45.061Z,97583.45
2017-11-27T08:01:11.181Z,97579.86
2017-11-27T08:03:37.297Z,97584.81
2017-11-27T08:06:03.492Z,97582.34
2017-11-27T08:08:29.684Z,97574.56
2017-11-27T08:10:55.817Z,97573.62
2017-11-27T08:13:21.959Z,97570.64
2017-11-27T08:15:48.098Z,97560.66
2017-11-27T08:18:14.258Z,97570.48
2017-11-27T08:20:40.363Z,97565.77
2017-11-27T08:23:06.540Z,97559.39
2017-11-27T08:25:32.654Z,97557.81
2017-11-27T08:27:58.794Z,97556.14
2017-11-27T08:30:24.927Z,97555.84
2017-11-27T08:32:51.086Z,97551.80
2017-11-27T08:35:17.204Z,97549.52
2017-11-27T08:37:43.325Z,97548.97
2017-11-27T08:40:09.566Z,97547.44
2017-11-27T08:42:35.748Z,97542.55
2017-11-27T08:45:02.261Z,97548.95
2017-11-27T08:47:28.369Z,97546.19
2017-11-27T08:49:54.506Z,97550.35
2017-11-27T08:52:20.645Z,97557.42
2017-11-27T08:54:46.790Z,97553.05
2017-11-27T08:57:12.908Z,97553.01
2017-11-27T08:59:39.021Z,97548.59
2017-11-27T09:02:05.137Z,97550.70
2017-11-27T09:04:31.253Z,97548.80
2017-11-27T09:06:57.406Z,97539.31
2017-11-27T09:09:23.530Z,97534.71
2017-11-27T09:11:49.707Z,97535.48
2017-11-27T09:14:15.785Z,97540.49
2017-11-27T09:16:41.898Z,97528.66
2017-11-27T09:19:08.036Z,97531.25
2017-11-27T09:21:34.130Z,97530.53
2017-11-27T09:24:00.210Z,97532.37
2017-11-27T09:26:26.388Z,97535.64
2017-11-27T09:28:52.485Z,97531.73
2017-11-27T09:31:18.848Z,97524.45
2017-11-27T09:33:44.977Z,97508.77
2017-11-27T09:36:11.223Z,97517.88
2017-11-27T09:38:37.328Z,97514.88
2017-11-27T09:41:03.449Z,97509.83
2017-11-27T09:43:29.579Z,97508.33
2017-11-27T09:45:55.698Z,97505.51
2017-11-27T09:48:21.869Z,97496.72
2017-11-27T09:50:47.953Z,97504.20
2017-11-27T09:53:14.138Z,97503.11
2017-11-27T09:55:40.321Z,97500.58
2017-11-27T09:58:06.436Z,97494.50
2017-11-27T10:00:32.506Z,97486.78
2017-11-27T10:02:58.626Z,97490.06
2017-11-27T10:05:24.749Z,97480.08
2017-11-27T10:07:50.833Z,97486.70
2017-11-27T10:10:16.974Z,97487.52
2017-11-27T10:12:43.090Z,97482.52
2017-11-27T10:15:09.213Z,97479.80
2017-11-27T10:17:35.322Z,97476.80
2017-11-27T10:20:01.477Z,97470.67
2017-11-27T10:22:27.584Z,97467.33
2017-11-27T10:24:53.775Z,97450.83
2017-11-27T10:27:19.904Z,97440.84
2017-11-27T10:29:46.053Z,97426.62
2017-11-27T10:32:12.194Z,97432.75
2017-11-27T10:34:38.318Z,97424.13
2017-11-27T10:37:04.464Z,97415.72
2017-11-27T10:39:30.586Z,97411.23
2017-11-27T10:41:56.692Z,97406.98
2017-11-27T10:44:22.871Z,97409.86
2017-11-27T10:46:49.021Z,97400.23
2017-11-27T10:49:17.100Z,97401.09
2017-11-27T10:51:43.234Z,97402.48
2017-11-27T10:54:09.442Z,97402.53
2017-11-27T10:56:35.603Z,97399.80
2017-11-27T10:59:01.691Z,97395.88
2017-11-27T11:01:27.834Z,97389.30
2017-11-27T11:03:53.948Z,97382.72
2017-11-27T11:06:20.127Z,97380.77
2017-11-27T11:08:46.217Z,97373.06
2017-11-27T11:11:12.423Z,97363.61
2017-11-27T11:13:38.557Z,97363.09
2017-11-27T11:16:04.656Z,97373.28
2017-11-27T11:18:30.813Z,97359.54
2017-11-27T11:20:56.896Z,97346.45
2017-11-27T11:23:23.047Z,97344.77
2017-11-27T11:25:49.136Z,97351.91
2017-11-27T11:28:15.328Z,97335.05
2017-11-27T11:30:41.497Z,97339.95
2017-11-27T11:33:07.630Z,97335.30
2017-11-27T11:35:33.742Z,97325.76
2017-11-27T11:37:59.873Z,97325.45
2017-11-27T11:40:25.977Z,97310.94
2017-11-27T11:42:52.069Z,97325.30
2017-11-27T11:45:18.148Z,97326.08
2017-11-27T11:47:44.270Z,97305.27
2017-11-27T11:50:10.371Z,97307.92
2017-11-27T11:52:36.561Z,97307.55
2017-11-27T11:55:02.921Z,97301.31
2017-11-27T11:57:29.014Z,97299.05
2017-11-27T11:59:55.089Z,97296.05
2017-11-27T12:02:21.230Z,97297.34
2017-11-27T12:04:47.446Z,97291.90
2017-11-27T12:07:13.542Z,97279.36
2017-11-27T12:09:39.662Z,97283.41
2017-11-27T12:12:05.794Z,97284.61
2017-11-27T12:14:31.890Z,97275.30
2017-11-27T12:16:58.024Z,97284.97
2017-11-27T12:19:24.173Z,97267.72
2017-11-27T12:21:50.314Z,97256.77
2017-11-27T12:24:16.381Z,97257.84
2017-11-27T12:26:42.518Z,97250.91
2017-11-27T12:29:08.758Z,97247.64
2017-11-27T12:31:34.903Z,97242.28
2017-11-27T12:34:01.041Z,97232.47
2017-11-27T12:36:27.165Z,97222.42
2017-11-27T12:38:53.349Z,97212.45
2017-11-27T12:41:19.437Z,97212.22
2017-11-27T12:43:45.521Z,97209.59
2017-11-27T12:46:11.674Z,97198.61
2017-11-27T12:48:37.845Z,97201.73
2017-11-27T12:51:04.025Z,97209.45
2017-11-27T12:53:30.170Z,97204.63
2017-11-27T12:55:56.316Z,97202.64
2017-11-27T12:58:22.442Z,97197.80
2017-11-27T13:00:48.549Z,97187.73
2017-11-27T13:03:14.666Z,97185.93
2017-11-27T13:05:40.793Z,97176.11
2017-11-27T13:08:06.889Z,97177.94
2017-11-27T13:10:32.967Z,97175.45
2017-11-27T13:12:59.062Z,97163.67
2017-11-27T13:15:25.121Z,97163.95
2017-11-27T13:17:51.243Z,97153.48
2017-11-27T13:20:17.366Z,97157.41
2017-11-27T13:22:43.586Z,97153.48
2017-11-27T13:25:09.698Z,97149.04
2017-11-27T13:27:35.829Z,97144.44
2017-11-27T13:30:01.985Z,97138.16
2017-11-27T13:32:28.145Z,97137.25
2017-11-27T13:34:54.250Z,97130.83
2017-11-27T13:37:20.361Z,97119.73
2017-11-27T13:39:46.485Z,97108.06
2017-11-27T13:42:12.613Z,97112.00
2017-11-27T13:44:38.786Z,97107.14
2017-11-27T13:47:04.894Z,97108.84
2017-11-27T13:49:31.029Z,97106.50
2017-11-27T13:51:57.805Z,97099.55
2017-11-27T13:54:24.138Z,97099.02
2017-11-27T13:56:50.224Z,97099.04
2017-11-27T13:59:16.441Z,97092.23
2017-11-27T14:01:42.533Z,97096.69
2017-11-27T14:04:08.630Z,97098.52
2017-11-27T14:06:34.791Z,97095.89
2017-11-27T14:09:00.954Z,97091.19
2017-11-27T14:11:27.082Z,97094.88
2017-11-27T14:13:53.238Z,97095.00
2017-11-27T14:16:19.386Z,97092.13
2017-11-27T14:18:45.575Z,97088.08
2017-11-27T14:21:11.718Z,97088.23
2017-11-27T14:23:37.882Z,97086.52
2017-11-27T14:26:03.987Z,97080.12
2017-11-27T14:28:31.285Z,97081.69
2017-11-27T14:30:57.347Z,97072.03
2017-11-27T14:33:23.522Z,97074.39
2017-11-27T14:35:49.614Z,97077.00
2017-11-27T14:38:15.809Z,97077.25
2017-11-27T14:40:41.913Z,97072.02
2017-11-27T14:43:07.944Z,97069.94
2017-11-27T14:45:34.037Z,97065.23
2017-11-27T14:48:00.375Z,97065.63
2017-11-27T14:50:26.490Z,97061.70
2017-11-27T14:52:52.545Z,97062.76
2017-11-27T14:55:19.004Z,97063.16
2017-11-27T14:57:45.166Z,97057.39
2017-11-27T15:00:11.222Z,97052.04
2017-11-27T15:02:37.355Z,97051.66
2017-11-27T15:05:04.285Z,97033.88
2017-11-27T15:07:30.400Z,97032.19
2017-11-27T15:09:56.488Z,97036.87
2017-11-27T15:12:22.683Z,97029.69
2017-11-27T15:14:48.771Z,97027.48
2017-11-27T15:17:14.871Z,97029.04
2017-11-27T15:19:40.999Z,97024.59
2017-11-27T15:22:07.046Z,97020.42
2017-11-27T15:24:33.857Z,97017.55
2017-11-27T15:26:59.957Z,97011.39
2017-11-27T15:29:26.099Z,97009.31
2017-11-27T15:31:52.222Z,97007.73
2017-11-27T15:34:18.421Z,96999.64
2017-11-27T15:36:44.522Z,96996.52
2017-11-27T15:39:10.691Z,96981.77
2017-11-27T15:41:36.858Z,96986.32
2017-11-27T15:44:02.973Z,96980.71
2017-11-27T15:46:29.075Z,96977.97
2017-11-27T15:48:55.154Z,96973.02
2017-11-27T15:51:21.272Z,96974.84
2017-11-27T15:53:47.435Z,96968.18
2017-11-27T15:56:13.582Z,96969.61
2017-11-27T15:58:39.741Z,96959.67
2017-11-27T16:01:05.822Z,96961.23
2017-11-27T16:03:32.083Z,96962.02
2017-11-27T16:05:58.158Z,96956.02
2017-11-27T16:08:24.286Z,96950.01
2017-11-27T16:10:50.369Z,96947.01
2017-11-27T16:13:16.507Z,96954.71
2017-11-27T16:15:42.705Z,96949.62
2017-11-27T16:18:08.794Z,96935.92
2017-11-27T16:20:34.873Z,96943.74
2017-11-27T16:23:01.017Z,96930.95
2017-11-27T16:25:27.122Z,96929.77
2017-11-27T16:27:53.247Z,96926.78
2017-11-27T16:30:19.631Z,96920.64
2017-11-27T16:32:45.741Z,96921.56
2017-11-27T16:35:11.847Z,96918.28
2017-11-27T16:37:37.868Z,96913.22
2017-11-27T16:40:04.065Z,96912.83
2017-11-27T16:42:30.261Z,96910.09
2017-11-27T16:44:56.400Z,96904.47
2017-11-27T16:47:22.562Z,96907.59
2017-11-27T16:49:48.681Z,96906.55
2017-11-27T16:52:14.891Z,96904.98
2017-11-27T16:54:40.983Z,96891.53
2017-11-27T16:57:07.201Z,96896.22
2017-11-27T16:59:33.301Z,96889.84
2017-11-27T17:02:00.403Z,96892.58
2017-11-27T17:04:26.577Z,96891.14
2017-11-27T17:06:52.726Z,96894.00
2017-11-27T17:09:18.874Z,96889.19
2017-11-27T17:11:44.964Z,96883.55
2017-11-27T17:14:11.191Z,96881.59
2017-11-27T17:16:38.245Z,96877.16
2017-11-27T17:19:04.380Z,96875.98
2017-11-27T17:21:30.499Z,96873.52
2017-11-27T17:23:56.730Z,96880.05
2017-11-27T17:26:22.827Z,96865.02
2017-11-27T17:28:48.995Z,96865.41
2017-11-27T17:31:15.137Z,96870.09
2017-11-27T17:33:41.226Z,96857.70
2017-11-27T17:36:07.388Z,96854.05
2017-11-27T17:38:33.537Z,96846.34
2017-11-27T17:40:59.980Z,96844.23
2017-11-27T17:43:26.086Z,96841.22
2017-11-27T17:45:52.271Z,96836.41
2017-11-27T17:48:18.481Z,96833.80
2017-11-27T17:50:45.120Z,96828.55
2017-11-27T17:53:11.297Z,96818.25
2017-11-27T17:55:37.456Z,96812.36
2017-11-27T17:58:03.673Z,96816.30
2017-11-27T18:00:29.822Z,96804.30
2017-11-27T18:02:55.982Z,96806.36
2017-11-27T18:05:22.087Z,96808.21
2017-11-27T18:07:48.247Z,96804.12
2017-11-27T18:10:14.420Z,96797.09
2017-11-27T18:12:40.635Z,96797.34
2017-11-27T18:15:06.880Z,96793.04
2017-11-27T18:17:32.998Z,96791.22
2017-11-27T18:19:59.115Z,96785.98
2017-11-27T18:22:25.235Z,96783.38
2017-11-27T18:24:51.366Z,96788.59
2017-11-27T18:27:17.550Z,96777.11
2017-11-27T18:29:43.670Z,96782.75
2017-11-27T18:32:09.802Z,96778.83
2017-11-27T18:34:35.988Z,96775.43
2017-11-27T18:37:02.160Z,96771.39
2017-11-27T18:39:28.356Z,96769.05
2017-11-27T18:41:54.454Z,96762.78
2017-11-27T18:44:20.568Z,96763.05
2017-11-27T18:46:46.854Z,96759.91
2017-11-27T18:49:13.006Z,96751.39
2017-11-27T18:51:39.190Z,96754.80
2017-11-27T18:54:05.336Z,96754.67
2017-11-27T18:56:31.501Z,96751.80
2017-11-27T18:58:57.668Z,96747.63
2017-11-27T19:01:23.801Z,96738.48
2017-11-27T19:03:49.897Z,96742.66
2017-11-27T19:06:16.058Z,96740.21
2017-11-27T19:08:42.261Z,96738.64
2017-11-27T19:11:08.376Z,96740.86
2017-11-27T19:13:34.488Z,96737.31
2017-11-27T19:16:00.565Z,96734.83
2017-11-27T19:18:26.667Z,96720.61
2017-11-27T19:20:52.762Z,96722.53
2017-11-27T19:23:18.879Z,96719.80
2017-11-27T19:25:44.984Z,96714.98
2017-11-27T19:28:11.102Z,96711.84
2017-11-27T19:30:37.410Z,96709.63
2017-11-27T19:33:03.526Z,96719.81
2017-11-27T19:35:29.631Z,96708.17
2017-11-27T19:37:55.840Z,96708.84
2017-11-27T19:40:22.172Z,96706.91
2017-11-27T19:42:48.504Z,96700.09
2017-11-27T19:45:14.813Z,96698.27
2017-11-27T19:47:41.053Z,96698.92
2017-11-27T19:50:07.209Z,96701.44
2017-11-27T19:52:33.375Z,96697.48
2017-11-27T19:54:59.527Z,96693.83
2017-11-27T19:57:25.762Z,96701.28
2017-11-27T19:59:51.969Z,96689.26
2017-11-27T20:02:18.151Z,96692.62
2017-11-27T20:04:44.341Z,96692.27
2017-11-27T20:07:10.467Z,96692.01
2017-11-27T20:09:36.674Z,96689.39
2017-11-27T20:12:02.949Z,96682.34
2017-11-27T20:14:29.094Z,96683.39
2017-11-27T20:16:55.335Z,96676.61
2017-11-27T20:19:21.493Z,96672.03
2017-11-27T20:21:47.826Z,96668.66
2017-11-27T20:24:14.096Z,96667.47
2017-11-27T20:26:40.325Z,96660.69
2017-11-27T20:29:06.503Z,96657.30
2017-11-27T20:31:32.789Z,96662.69
2017-11-27T20:33:58.975Z,96654.18
2017-11-27T20:36:25.223Z,96650.83
2017-11-27T20:38:51.409Z,96650.44
2017-11-27T20:41:17.645Z,96647.16
2017-11-27T20:43:43.825Z,96648.56
2017-11-27T20:46:10.139Z,96646.34
2017-11-27T20:48:36.359Z,96643.25
2017-11-27T20:51:02.627Z,96644.52
2017-11-27T20:53:28.817Z,96642.45
2017-11-27T20:55:55.001Z,96631.34
2017-11-27T20:58:21.214Z,96634.33
2017-11-27T21:00:47.425Z,96634.19
2017-11-27T21:03:14.594Z,96627.53
2017-11-27T21:05:40.665Z,96626.36
2017-11-27T21:08:06.841Z,96628.03
2017-11-27T21:10:32.910Z,96634.17
2017-11-27T21:12:59.142Z,96623.84
2017-11-27T21:15:25.234Z,96623.34
2017-11-27T21:17:51.403Z,96614.46
2017-11-27T21:20:17.544Z,96610.02
2017-11-27T21:22:43.683Z,96610.39
2017-11-27T21:25:09.850Z,96609.34
2017-11-27T21:27:36.100Z,96610.53
2017-11-27T21:30:02.820Z,96606.63
2017-11-27T21:32:29.369Z,96604.41
2017-11-27T21:34:55.502Z,96599.42
2017-11-27T21:37:22.442Z,96595.90
2017-11-27T21:39:48.591Z,96603.36
2017-11-27T21:42:14.777Z,96597.75
2017-11-27T21:44:40.978Z,96581.02
2017-11-27T21:47:07.101Z,96589.66
2017-11-27T21:49:33.225Z,96582.07
2017-11-27T21:51:59.454Z,96578.80
2017-11-27T21:54:25.698Z,96578.16
2017-11-27T21:56:51.864Z,96574.97
2017-11-27T21:59:18.270Z,96565.45
2017-11-27T22:01:44.420Z,96560.34
2017-11-27T22:04:10.839Z,96558.66
2017-11-27T22:06:37.021Z,96555.69
2017-11-27T22:09:03.256Z,96548.81
2017-11-27T22:11:29.496Z,96550.67
2017-11-27T22:13:55.661Z,96549.87
2017-11-27T22:16:21.758Z,96552.48
2017-11-27T22:18:47.921Z,96551.43
2017-11-27T22:21:14.051Z,96548.63
2017-11-27T22:23:40.253Z,96545.38
2017-11-27T22:26:06.330Z,96542.77
2017-11-27T22:28:32.419Z,96534.16
2017-11-27T22:30:58.525Z,96531.91
2017-11-27T22:33:24.761Z,96527.76
2017-11-27T22:35:51.092Z,96524.09
2017-11-27T22:38:17.245Z,96531.66
2017-11-27T22:40:43.302Z,96526.75
2017-11-27T22:43:09.416Z,96517.03
2017-11-27T22:45:35.497Z,96514.56
2017-11-27T22:48:01.889Z,96512.42
2017-11-27T22:50:28.362Z,96513.73
2017-11-27T22:52:54.518Z,96509.59
2017-11-27T22:55:20.706Z,96502.03
2017-11-27T22:57:46.803Z,96506.08
2017-11-27T23:00:12.946Z,96495.89
2017-11-27T23:02:39.183Z,96496.02
2017-11-27T23:05:05.313Z,96492.36
2017-11-27T23:07:31.489Z,96484.13
2017-11-27T23:09:57.669Z,96478.52
2017-11-27T23:12:23.827Z,96471.98
2017-11-27T23:14:50.001Z,96470.27
2017-11-27T23:17:16.248Z,96467.57
2017-11-27T23:19:42.350Z,96474.47
2017-11-27T23:22:08.506Z,96472.30
2017-11-27T23:24:34.631Z,96466.40
2017-11-27T23:27:00.833Z,96460.54
2017-11-27T23:29:27.013Z,96461.31
2017-11-27T23:31:53.213Z,96450.23
2017-11-27T23:34:19.383Z,96446.87
2017-11-27T23:36:45.538Z,96446.67
2017-11-27T23:39:11.650Z,96433.08
2017-11-27T23:41:37.794Z,96441.92
2017-11-27T23:44:03.969Z,96440.00
2017-11-27T23:46:30.078Z,96444.06
2017-11-27T23:48:56.259Z,96437.25
2017-11-27T23:51:22.358Z,96436.59
2017-11-27T23:53:48.508Z,96435.17
2017-11-27T23:56:14.589Z,96432.06
2017-11-27T23:58:40.742Z,96438.42
